sensor_id;sensor_type;location;lat;lon;timestamp;P1;P2;P0
65360;PMS5003;51958;55.018;73.536;2023-10-09T00:01:17;0.00;0.00;0.00
65360;PMS5003;51958;55.018;73.536;2023-10-09T00:04:19;0.00;0.00;0.00
65360;PMS5003;51958;55.018;73.536;2023-10-09T00:07:21;0.00;0.00;0.00
65360;PMS5003;51958;55.018;73.536;2023-10-09T00:10:24;0.00;0.00;0.00
65360;PMS5003;51958;55.018;73.536;2023-10-09T00:13:35;0.00;0.00;0.00
65360;PMS5003;51958;55.018;73.536;2023-10-09T00:16:38;0.00;0.00;0.00
65360;PMS5003;51958;55.018;73.536;2023-10-09T00:19:57;0.00;0.00;0.00
65360;PMS5003;51958;55.018;73.536;2023-10-09T00:23:00;0.67;0.00;0.00
65360;PMS5003;51958;55.018;73.536;2023-10-09T00:26:01;0.00;0.00;0.00
65360;PMS5003;51958;55.018;73.536;2023-10-09T00:29:22;1.00;0.00;0.00
65360;PMS5003;51958;55.018;73.536;2023-10-09T00:32:23;1.00;1.00;0.00
65360;PMS5003;51958;55.018;73.536;2023-10-09T00:35:27;1.00;0.33;0.00
65360;PMS5003;51958;55.018;73.536;2023-10-09T00:38:38;0.00;0.00;0.00
65360;PMS5003;51958;55.018;73.536;2023-10-09T00:41:46;0.00;0.00;0.00
65360;PMS5003;51958;55.018;73.536;2023-10-09T00:44:48;1.00;1.00;0.00
65360;PMS5003;51958;55.018;73.536;2023-10-09T00:47:50;2.00;1.00;0.00
65360;PMS5003;51958;55.018;73.536;2023-10-09T00:50:51;1.00;1.00;0.00
65360;PMS5003;51958;55.018;73.536;2023-10-09T00:53:57;2.00;1.00;0.00
65360;PMS5003;51958;55.018;73.536;2023-10-09T00:56:59;1.00;0.00;0.00
65360;PMS5003;51958;55.018;73.536;2023-10-09T01:00:07;0.00;0.00;0.00
65360;PMS5003;51958;55.018;73.536;2023-10-09T01:03:32;0.00;0.00;0.00
65360;PMS5003;51958;55.018;73.536;2023-10-09T01:06:35;1.67;1.33;0.00
65360;PMS5003;51958;55.018;73.536;2023-10-09T01:09:43;2.00;1.00;0.00
65360;PMS5003;51958;55.018;73.536;2023-10-09T01:12:45;2.00;1.00;0.00
65360;PMS5003;51958;55.018;73.536;2023-10-09T01:15:48;1.00;1.00;0.00
65360;PMS5003;51958;55.018;73.536;2023-10-09T01:18:50;3.00;1.00;0.00
65360;PMS5003;51958;55.018;73.536;2023-10-09T01:21:52;2.00;1.67;0.00
65360;PMS5003;51958;55.018;73.536;2023-10-09T01:24:53;1.00;1.00;0.00
65360;PMS5003;51958;55.018;73.536;2023-10-09T01:27:56;1.00;1.00;0.00
65360;PMS5003;51958;55.018;73.536;2023-10-09T01:30:58;1.00;1.00;0.00
65360;PMS5003;51958;55.018;73.536;2023-10-09T01:34:01;2.00;0.00;0.00
65360;PMS5003;51958;55.018;73.536;2023-10-09T01:37:05;2.00;1.00;0.00
65360;PMS5003;51958;55.018;73.536;2023-10-09T01:40:12;3.33;2.33;0.00
65360;PMS5003;51958;55.018;73.536;2023-10-09T01:43:28;3.00;3.00;0.00
65360;PMS5003;51958;55.018;73.536;2023-10-09T01:46:29;3.00;2.00;0.00
65360;PMS5003;51958;55.018;73.536;2023-10-09T01:49:37;3.00;2.00;0.00
65360;PMS5003;51958;55.018;73.536;2023-10-09T01:52:42;2.67;2.67;0.00
65360;PMS5003;51958;55.018;73.536;2023-10-09T01:55:43;2.00;2.00;0.00
65360;PMS5003;51958;55.018;73.536;2023-10-09T01:58:47;2.00;2.00;0.00
65360;PMS5003;51958;55.018;73.536;2023-10-09T02:01:51;2.00;2.00;0.00
65360;PMS5003;51958;55.018;73.536;2023-10-09T02:04:56;0.00;0.00;0.00
65360;PMS5003;51958;55.018;73.536;2023-10-09T02:08:11;0.00;0.00;0.00
65360;PMS5003;51958;55.018;73.536;2023-10-09T02:11:25;2.00;2.00;0.00
65360;PMS5003;51958;55.018;73.536;2023-10-09T02:14:46;2.00;1.00;0.00
65360;PMS5003;51958;55.018;73.536;2023-10-09T02:17:47;2.67;1.00;0.00
65360;PMS5003;51958;55.018;73.536;2023-10-09T02:24:03;1.00;1.00;0.00
65360;PMS5003;51958;55.018;73.536;2023-10-09T02:27:10;0.00;0.00;0.00
65360;PMS5003;51958;55.018;73.536;2023-10-09T02:30:18;0.00;0.00;0.00
65360;PMS5003;51958;55.018;73.536;2023-10-09T02:33:27;2.00;2.00;0.00
65360;PMS5003;51958;55.018;73.536;2023-10-09T02:36:28;2.00;1.67;0.00
65360;PMS5003;51958;55.018;73.536;2023-10-09T02:39:29;0.00;0.00;0.00
65360;PMS5003;51958;55.018;73.536;2023-10-09T02:42:37;2.00;1.00;0.00
65360;PMS5003;51958;55.018;73.536;2023-10-09T02:45:43;1.33;1.33;0.00
65360;PMS5003;51958;55.018;73.536;2023-10-09T02:48:51;1.00;1.00;0.00
65360;PMS5003;51958;55.018;73.536;2023-10-09T02:51:53;0.00;0.00;0.00
65360;PMS5003;51958;55.018;73.536;2023-10-09T02:54:56;1.00;0.00;0.00
65360;PMS5003;51958;55.018;73.536;2023-10-09T02:58:09;0.00;0.00;0.00
65360;PMS5003;51958;55.018;73.536;2023-10-09T03:01:21;0.33;0.00;0.00
65360;PMS5003;51958;55.018;73.536;2023-10-09T03:04:22;0.00;0.00;0.00
65360;PMS5003;51958;55.018;73.536;2023-10-09T03:07:24;0.00;0.00;0.00
65360;PMS5003;51958;55.018;73.536;2023-10-09T03:10:42;2.00;0.00;0.00
65360;PMS5003;51958;55.018;73.536;2023-10-09T03:13:43;1.00;0.00;0.00
65360;PMS5003;51958;55.018;73.536;2023-10-09T03:16:45;1.00;0.00;0.00
65360;PMS5003;51958;55.018;73.536;2023-10-09T03:19:48;2.00;2.00;0.00
65360;PMS5003;51958;55.018;73.536;2023-10-09T03:22:50;1.00;1.00;0.00
65360;PMS5003;51958;55.018;73.536;2023-10-09T03:25:51;2.00;1.00;0.00
65360;PMS5003;51958;55.018;73.536;2023-10-09T03:28:53;3.00;2.00;0.00
65360;PMS5003;51958;55.018;73.536;2023-10-09T03:31:54;2.00;2.00;0.00
65360;PMS5003;51958;55.018;73.536;2023-10-09T03:34:57;0.00;0.00;0.00
65360;PMS5003;51958;55.018;73.536;2023-10-09T03:38:00;0.00;0.00;0.00
65360;PMS5003;51958;55.018;73.536;2023-10-09T03:41:02;1.00;0.00;0.00
65360;PMS5003;51958;55.018;73.536;2023-10-09T03:44:06;1.00;1.00;0.00
65360;PMS5003;51958;55.018;73.536;2023-10-09T03:47:07;1.00;1.00;0.00
65360;PMS5003;51958;55.018;73.536;2023-10-09T03:50:12;0.00;0.00;0.00
65360;PMS5003;51958;55.018;73.536;2023-10-09T03:53:27;2.00;1.00;0.00
65360;PMS5003;51958;55.018;73.536;2023-10-09T03:56:30;0.00;0.00;0.00
65360;PMS5003;51958;55.018;73.536;2023-10-09T03:59:33;0.00;0.00;0.00
65360;PMS5003;51958;55.018;73.536;2023-10-09T04:02:34;1.00;0.25;0.00
65360;PMS5003;51958;55.018;73.536;2023-10-09T04:05:35;1.00;1.00;0.00
65360;PMS5003;51958;55.018;73.536;2023-10-09T04:08:37;3.00;2.00;0.00
65360;PMS5003;51958;55.018;73.536;2023-10-09T04:11:45;3.00;2.00;0.00
65360;PMS5003;51958;55.018;73.536;2023-10-09T04:14:47;2.00;2.00;0.00
65360;PMS5003;51958;55.018;73.536;2023-10-09T04:17:51;2.00;2.00;0.00
65360;PMS5003;51958;55.018;73.536;2023-10-09T04:20:52;2.00;1.00;0.00
65360;PMS5003;51958;55.018;73.536;2023-10-09T04:24:12;2.00;1.00;0.00
65360;PMS5003;51958;55.018;73.536;2023-10-09T04:27:13;1.00;1.00;0.00
65360;PMS5003;51958;55.018;73.536;2023-10-09T04:30:17;0.00;0.00;0.00
65360;PMS5003;51958;55.018;73.536;2023-10-09T04:33:19;2.00;2.00;0.00
65360;PMS5003;51958;55.018;73.536;2023-10-09T04:36:41;0.00;0.00;0.00
65360;PMS5003;51958;55.018;73.536;2023-10-09T04:39:50;8.00;7.50;2.50
65360;PMS5003;51958;55.018;73.536;2023-10-09T04:43:03;4.00;3.00;1.00
65360;PMS5003;51958;55.018;73.536;2023-10-09T04:46:07;2.00;1.75;0.00
65360;PMS5003;51958;55.018;73.536;2023-10-09T04:49:13;2.00;1.00;0.00
65360;PMS5003;51958;55.018;73.536;2023-10-09T04:52:29;2.00;1.00;0.00
65360;PMS5003;51958;55.018;73.536;2023-10-09T04:55:30;1.00;1.00;0.00
65360;PMS5003;51958;55.018;73.536;2023-10-09T04:58:40;2.00;1.00;0.00
65360;PMS5003;51958;55.018;73.536;2023-10-09T05:01:42;2.00;1.00;0.00
65360;PMS5003;51958;55.018;73.536;2023-10-09T05:04:58;0.00;0.00;0.00
65360;PMS5003;51958;55.018;73.536;2023-10-09T05:08:22;2.00;2.00;0.00
65360;PMS5003;51958;55.018;73.536;2023-10-09T05:11:23;1.33;1.33;0.00
65360;PMS5003;51958;55.018;73.536;2023-10-09T05:14:43;2.00;2.00;0.00
65360;PMS5003;51958;55.018;73.536;2023-10-09T05:18:04;1.00;1.00;0.00
65360;PMS5003;51958;55.018;73.536;2023-10-09T05:21:10;7.33;7.00;3.00
65360;PMS5003;51958;55.018;73.536;2023-10-09T05:24:14;6.00;5.25;2.00
65360;PMS5003;51958;55.018;73.536;2023-10-09T05:27:17;3.50;3.50;1.50
65360;PMS5003;51958;55.018;73.536;2023-10-09T05:30:18;3.00;3.00;1.00
65360;PMS5003;51958;55.018;73.536;2023-10-09T05:33:25;2.00;2.00;0.00
65360;PMS5003;51958;55.018;73.536;2023-10-09T05:36:29;2.75;2.75;0.00
65360;PMS5003;51958;55.018;73.536;2023-10-09T05:39:30;2.67;1.67;0.67
65360;PMS5003;51958;55.018;73.536;2023-10-09T05:42:41;1.00;1.00;0.00
65360;PMS5003;51958;55.018;73.536;2023-10-09T05:45:43;3.00;3.00;0.00
65360;PMS5003;51958;55.018;73.536;2023-10-09T05:49:08;3.50;3.50;0.00
65360;PMS5003;51958;55.018;73.536;2023-10-09T05:52:23;2.00;1.00;0.00
65360;PMS5003;51958;55.018;73.536;2023-10-09T05:55:33;3.00;3.00;0.00
65360;PMS5003;51958;55.018;73.536;2023-10-09T05:58:53;2.50;2.50;0.00
65360;PMS5003;51958;55.018;73.536;2023-10-09T06:02:32;4.00;3.00;0.00
65360;PMS5003;51958;55.018;73.536;2023-10-09T06:06:05;1.75;1.25;0.00
65360;PMS5003;51958;55.018;73.536;2023-10-09T06:09:07;4.00;4.00;0.00
65360;PMS5003;51958;55.018;73.536;2023-10-09T06:12:11;4.00;4.00;0.00
65360;PMS5003;51958;55.018;73.536;2023-10-09T06:15:37;4.00;4.00;0.00
65360;PMS5003;51958;55.018;73.536;2023-10-09T06:18:51;6.50;5.25;0.50
65360;PMS5003;51958;55.018;73.536;2023-10-09T06:22:09;4.00;3.33;0.00
65360;PMS5003;51958;55.018;73.536;2023-10-09T06:25:30;5.00;4.00;1.00
65360;PMS5003;51958;55.018;73.536;2023-10-09T06:28:37;4.00;4.00;1.00
65360;PMS5003;51958;55.018;73.536;2023-10-09T06:31:50;5.67;5.00;2.00
65360;PMS5003;51958;55.018;73.536;2023-10-09T06:35:17;5.00;5.00;3.00
65360;PMS5003;51958;55.018;73.536;2023-10-09T06:38:20;5.00;4.00;2.00
65360;PMS5003;51958;55.018;73.536;2023-10-09T06:41:27;5.00;4.00;2.67
65360;PMS5003;51958;55.018;73.536;2023-10-09T06:44:35;5.50;5.25;3.50
65360;PMS5003;51958;55.018;73.536;2023-10-09T06:48:01;5.00;5.00;3.00
65360;PMS5003;51958;55.018;73.536;2023-10-09T06:51:32;7.60;5.40;2.00
65360;PMS5003;51958;55.018;73.536;2023-10-09T06:54:33;7.25;6.00;2.00
65360;PMS5003;51958;55.018;73.536;2023-10-09T06:57:38;14.25;9.00;4.00
65360;PMS5003;51958;55.018;73.536;2023-10-09T07:00:49;11.50;8.00;3.50
65360;PMS5003;51958;55.018;73.536;2023-10-09T07:03:57;14.67;10.00;4.67
65360;PMS5003;51958;55.018;73.536;2023-10-09T07:07:11;12.00;8.00;3.25
65360;PMS5003;51958;55.018;73.536;2023-10-09T07:10:17;12.00;10.00;4.00
65360;PMS5003;51958;55.018;73.536;2023-10-09T07:13:30;9.00;7.67;4.00
65360;PMS5003;51958;55.018;73.536;2023-10-09T07:16:37;8.00;7.25;3.00
65360;PMS5003;51958;55.018;73.536;2023-10-09T07:19:39;8.75;7.75;2.75
65360;PMS5003;51958;55.018;73.536;2023-10-09T07:22:42;10.00;8.67;4.00
65360;PMS5003;51958;55.018;73.536;2023-10-09T07:26:10;8.50;8.00;3.50
65360;PMS5003;51958;55.018;73.536;2023-10-09T07:29:23;10.50;8.00;5.00
65360;PMS5003;51958;55.018;73.536;2023-10-09T07:32:25;8.00;7.00;4.00
65360;PMS5003;51958;55.018;73.536;2023-10-09T07:35:30;7.00;6.50;3.50
65360;PMS5003;51958;55.018;73.536;2023-10-09T07:38:44;11.25;11.25;4.50
65360;PMS5003;51958;55.018;73.536;2023-10-09T07:41:46;8.00;7.00;3.00
65360;PMS5003;51958;55.018;73.536;2023-10-09T07:44:57;8.67;7.33;4.67
65360;PMS5003;51958;55.018;73.536;2023-10-09T07:47:58;11.00;9.50;5.00
65360;PMS5003;51958;55.018;73.536;2023-10-09T07:51:00;9.00;8.00;4.00
65360;PMS5003;51958;55.018;73.536;2023-10-09T07:54:06;7.33;7.33;4.00
65360;PMS5003;51958;55.018;73.536;2023-10-09T07:57:10;9.00;8.00;3.00
65360;PMS5003;51958;55.018;73.536;2023-10-09T08:00:17;7.00;6.00;2.00
65360;PMS5003;51958;55.018;73.536;2023-10-09T08:03:36;6.00;6.00;4.00
65360;PMS5003;51958;55.018;73.536;2023-10-09T08:06:38;6.00;6.00;4.25
65360;PMS5003;51958;55.018;73.536;2023-10-09T08:09:39;7.00;6.00;3.00
65360;PMS5003;51958;55.018;73.536;2023-10-09T08:12:48;5.00;3.33;1.00
65360;PMS5003;51958;55.018;73.536;2023-10-09T08:15:55;5.00;4.50;1.00
65360;PMS5003;51958;55.018;73.536;2023-10-09T08:18:57;4.00;4.00;1.00
65360;PMS5003;51958;55.018;73.536;2023-10-09T08:21:59;5.00;4.25;1.50
65360;PMS5003;51958;55.018;73.536;2023-10-09T08:25:18;6.00;5.00;1.00
65360;PMS5003;51958;55.018;73.536;2023-10-09T08:28:36;4.00;4.00;1.00
65360;PMS5003;51958;55.018;73.536;2023-10-09T08:31:47;4.00;4.00;1.00
65360;PMS5003;51958;55.018;73.536;2023-10-09T08:34:57;5.00;5.00;1.00
65360;PMS5003;51958;55.018;73.536;2023-10-09T08:38:00;6.00;6.00;1.00
65360;PMS5003;51958;55.018;73.536;2023-10-09T08:41:10;4.00;4.00;1.00
65360;PMS5003;51958;55.018;73.536;2023-10-09T08:44:19;3.67;3.67;1.33
65360;PMS5003;51958;55.018;73.536;2023-10-09T08:47:24;5.50;5.00;2.00
65360;PMS5003;51958;55.018;73.536;2023-10-09T08:50:25;4.00;4.00;1.00
65360;PMS5003;51958;55.018;73.536;2023-10-09T08:53:29;5.00;5.00;1.00
65360;PMS5003;51958;55.018;73.536;2023-10-09T08:56:43;3.25;3.25;2.00
65360;PMS5003;51958;55.018;73.536;2023-10-09T08:59:51;7.25;4.25;2.00
65360;PMS5003;51958;55.018;73.536;2023-10-09T09:02:52;4.00;4.00;1.00
65360;PMS5003;51958;55.018;73.536;2023-10-09T09:06:00;4.75;4.75;1.00
65360;PMS5003;51958;55.018;73.536;2023-10-09T09:09:09;5.00;5.00;2.00
65360;PMS5003;51958;55.018;73.536;2023-10-09T09:12:14;4.00;4.00;2.00
65360;PMS5003;51958;55.018;73.536;2023-10-09T09:18:28;2.50;2.00;0.00
65360;PMS5003;51958;55.018;73.536;2023-10-09T09:21:42;5.50;4.00;0.00
65360;PMS5003;51958;55.018;73.536;2023-10-09T09:24:43;4.00;3.50;1.00
65360;PMS5003;51958;55.018;73.536;2023-10-09T09:28:01;5.75;4.00;1.50
65360;PMS5003;51958;55.018;73.536;2023-10-09T09:31:10;8.00;6.00;3.00
65360;PMS5003;51958;55.018;73.536;2023-10-09T09:34:15;6.00;6.00;2.00
65360;PMS5003;51958;55.018;73.536;2023-10-09T09:37:21;5.00;4.50;1.00
65360;PMS5003;51958;55.018;73.536;2023-10-09T09:40:47;5.00;4.00;1.00
65360;PMS5003;51958;55.018;73.536;2023-10-09T09:43:57;6.67;5.67;1.67
65360;PMS5003;51958;55.018;73.536;2023-10-09T09:47:02;7.50;7.25;3.00
65360;PMS5003;51958;55.018;73.536;2023-10-09T09:50:07;8.00;6.00;3.00
65360;PMS5003;51958;55.018;73.536;2023-10-09T09:53:25;6.67;5.67;3.67
65360;PMS5003;51958;55.018;73.536;2023-10-09T09:56:26;6.00;5.00;1.00
65360;PMS5003;51958;55.018;73.536;2023-10-09T09:59:29;5.25;5.25;3.00
65360;PMS5003;51958;55.018;73.536;2023-10-09T10:02:34;9.00;8.00;5.00
65360;PMS5003;51958;55.018;73.536;2023-10-09T10:05:36;5.00;5.00;2.00
65360;PMS5003;51958;55.018;73.536;2023-10-09T10:08:37;4.00;4.00;1.00
65360;PMS5003;51958;55.018;73.536;2023-10-09T10:21:18;6.75;6.50;2.00
65360;PMS5003;51958;55.018;73.536;2023-10-09T10:28:15;6.50;6.00;3.50
65360;PMS5003;51958;55.018;73.536;2023-10-09T10:31:14;7.00;6.00;4.00
65360;PMS5003;51958;55.018;73.536;2023-10-09T10:34:16;7.00;7.00;3.00
65360;PMS5003;51958;55.018;73.536;2023-10-09T10:37:37;9.00;8.75;4.00
65360;PMS5003;51958;55.018;73.536;2023-10-09T10:40:51;10.00;8.00;2.25
65360;PMS5003;51958;55.018;73.536;2023-10-09T10:43:58;8.00;7.00;3.00
65360;PMS5003;51958;55.018;73.536;2023-10-09T10:47:02;6.75;6.75;3.00
65360;PMS5003;51958;55.018;73.536;2023-10-09T10:50:04;5.00;4.00;3.00
65360;PMS5003;51958;55.018;73.536;2023-10-09T10:53:32;6.00;5.00;3.00
65360;PMS5003;51958;55.018;73.536;2023-10-09T10:56:48;6.67;6.00;3.00
65360;PMS5003;51958;55.018;73.536;2023-10-09T10:59:49;5.75;5.25;3.75
65360;PMS5003;51958;55.018;73.536;2023-10-09T11:03:04;6.00;6.00;3.00
65360;PMS5003;51958;55.018;73.536;2023-10-09T11:06:23;5.00;5.00;2.00
65360;PMS5003;51958;55.018;73.536;2023-10-09T11:09:25;6.50;6.00;2.00
65360;PMS5003;51958;55.018;73.536;2023-10-09T11:12:42;6.00;6.00;2.00
65360;PMS5003;51958;55.018;73.536;2023-10-09T11:15:46;7.33;6.33;3.00
65360;PMS5003;51958;55.018;73.536;2023-10-09T11:18:49;8.00;6.00;3.00
65360;PMS5003;51958;55.018;73.536;2023-10-09T11:21:50;6.00;5.50;2.00
65360;PMS5003;51958;55.018;73.536;2023-10-09T11:24:59;6.00;6.00;2.00
65360;PMS5003;51958;55.018;73.536;2023-10-09T11:28:19;8.00;8.00;3.00
65360;PMS5003;51958;55.018;73.536;2023-10-09T11:35:10;6.67;6.00;2.00
65360;PMS5003;51958;55.018;73.536;2023-10-09T11:38:12;7.00;6.00;3.00
65360;PMS5003;51958;55.018;73.536;2023-10-09T11:41:22;8.75;7.00;2.00
65360;PMS5003;51958;55.018;73.536;2023-10-09T11:44:35;6.25;6.00;3.50
65360;PMS5003;51958;55.018;73.536;2023-10-09T11:47:41;6.00;6.00;3.00
65360;PMS5003;51958;55.018;73.536;2023-10-09T11:50:58;6.00;6.00;2.00
65360;PMS5003;51958;55.018;73.536;2023-10-09T11:54:06;6.00;6.00;2.75
65360;PMS5003;51958;55.018;73.536;2023-10-09T11:57:09;8.00;7.00;4.00
65360;PMS5003;51958;55.018;73.536;2023-10-09T12:00:10;8.00;7.75;4.00
65360;PMS5003;51958;55.018;73.536;2023-10-09T12:04:03;10.50;10.50;4.00
65360;PMS5003;51958;55.018;73.536;2023-10-09T12:07:05;12.67;12.00;6.00
65360;PMS5003;51958;55.018;73.536;2023-10-09T12:10:23;14.00;12.00;5.00
65360;PMS5003;51958;55.018;73.536;2023-10-09T12:13:27;11.00;10.50;4.25
65360;PMS5003;51958;55.018;73.536;2023-10-09T12:16:29;9.00;9.00;5.00
65360;PMS5003;51958;55.018;73.536;2023-10-09T12:19:49;7.75;7.00;4.75
65360;PMS5003;51958;55.018;73.536;2023-10-09T12:22:52;6.00;6.00;3.00
65360;PMS5003;51958;55.018;73.536;2023-10-09T12:25:53;6.00;6.00;3.00
65360;PMS5003;51958;55.018;73.536;2023-10-09T12:28:57;6.00;5.50;2.00
65360;PMS5003;51958;55.018;73.536;2023-10-09T12:32:08;4.00;4.00;2.00
65360;PMS5003;51958;55.018;73.536;2023-10-09T12:35:21;4.75;4.75;3.00
65360;PMS5003;51958;55.018;73.536;2023-10-09T12:38:29;6.00;6.00;3.00
65360;PMS5003;51958;55.018;73.536;2023-10-09T12:41:33;5.00;5.00;3.00
65360;PMS5003;51958;55.018;73.536;2023-10-09T12:44:36;6.00;6.00;3.00
65360;PMS5003;51958;55.018;73.536;2023-10-09T12:47:40;5.00;5.00;2.00
65360;PMS5003;51958;55.018;73.536;2023-10-09T12:50:54;5.00;5.00;2.00
65360;PMS5003;51958;55.018;73.536;2023-10-09T12:53:56;8.00;7.00;5.00
65360;PMS5003;51958;55.018;73.536;2023-10-09T12:56:58;8.00;7.25;6.00
65360;PMS5003;51958;55.018;73.536;2023-10-09T12:59:59;10.00;9.00;6.00
65360;PMS5003;51958;55.018;73.536;2023-10-09T13:03:01;16.75;14.00;9.00
65360;PMS5003;51958;55.018;73.536;2023-10-09T13:06:02;13.00;8.33;3.33
65360;PMS5003;51958;55.018;73.536;2023-10-09T13:09:15;7.00;5.00;2.00
65360;PMS5003;51958;55.018;73.536;2023-10-09T13:12:26;9.00;6.00;2.00
65360;PMS5003;51958;55.018;73.536;2023-10-09T13:15:29;14.25;12.75;6.50
65360;PMS5003;51958;55.018;73.536;2023-10-09T13:18:41;17.67;15.67;8.67
65360;PMS5003;51958;55.018;73.536;2023-10-09T13:21:50;14.25;10.50;5.00
65360;PMS5003;51958;55.018;73.536;2023-10-09T13:24:52;9.00;6.00;3.00
65360;PMS5003;51958;55.018;73.536;2023-10-09T13:28:20;5.00;4.00;2.00
65360;PMS5003;51958;55.018;73.536;2023-10-09T13:31:22;5.00;3.75;2.00
65360;PMS5003;51958;55.018;73.536;2023-10-09T13:34:26;5.25;5.00;3.00
65360;PMS5003;51958;55.018;73.536;2023-10-09T13:37:38;5.00;4.33;2.00
65360;PMS5003;51958;55.018;73.536;2023-10-09T13:40:39;9.00;8.25;2.50
65360;PMS5003;51958;55.018;73.536;2023-10-09T13:43:40;7.00;6.00;3.00
65360;PMS5003;51958;55.018;73.536;2023-10-09T13:46:41;7.00;6.00;3.00
65360;PMS5003;51958;55.018;73.536;2023-10-09T13:49:44;6.00;5.00;2.00
65360;PMS5003;51958;55.018;73.536;2023-10-09T13:53:06;4.00;4.00;1.00
65360;PMS5003;51958;55.018;73.536;2023-10-09T13:56:12;5.33;4.00;0.00
65360;PMS5003;51958;55.018;73.536;2023-10-09T13:59:15;4.00;4.00;0.00
65360;PMS5003;51958;55.018;73.536;2023-10-09T14:02:21;5.00;4.50;0.00
65360;PMS5003;51958;55.018;73.536;2023-10-09T14:05:22;6.50;6.25;1.75
65360;PMS5003;51958;55.018;73.536;2023-10-09T14:08:23;7.00;6.00;4.00
65360;PMS5003;51958;55.018;73.536;2023-10-09T14:11:26;8.00;6.00;3.50
65360;PMS5003;51958;55.018;73.536;2023-10-09T14:14:31;5.00;5.00;3.00
65360;PMS5003;51958;55.018;73.536;2023-10-09T14:17:32;5.00;4.00;2.00
65360;PMS5003;51958;55.018;73.536;2023-10-09T14:20:34;4.00;4.00;1.00
65360;PMS5003;51958;55.018;73.536;2023-10-09T14:23:35;5.00;5.00;1.00
65360;PMS5003;51958;55.018;73.536;2023-10-09T14:26:36;5.00;4.00;2.00
65360;PMS5003;51958;55.018;73.536;2023-10-09T14:29:37;6.75;5.50;3.00
65360;PMS5003;51958;55.018;73.536;2023-10-09T14:32:38;7.00;7.00;3.00
65360;PMS5003;51958;55.018;73.536;2023-10-09T14:35:49;5.00;5.00;3.00
65360;PMS5003;51958;55.018;73.536;2023-10-09T14:38:54;5.00;5.00;2.00
65360;PMS5003;51958;55.018;73.536;2023-10-09T14:41:56;6.00;5.00;2.00
65360;PMS5003;51958;55.018;73.536;2023-10-09T14:45:01;3.50;3.00;1.00
65360;PMS5003;51958;55.018;73.536;2023-10-09T14:48:08;2.00;2.00;0.00
65360;PMS5003;51958;55.018;73.536;2023-10-09T14:51:12;5.00;5.00;1.00
65360;PMS5003;51958;55.018;73.536;2023-10-09T14:54:14;6.50;3.75;0.00
65360;PMS5003;51958;55.018;73.536;2023-10-09T14:57:19;4.00;4.00;0.00
65360;PMS5003;51958;55.018;73.536;2023-10-09T15:00:22;4.75;4.25;1.00
65360;PMS5003;51958;55.018;73.536;2023-10-09T15:03:23;3.50;3.50;1.00
65360;PMS5003;51958;55.018;73.536;2023-10-09T15:06:25;3.00;2.00;1.00
65360;PMS5003;51958;55.018;73.536;2023-10-09T15:09:28;2.00;2.00;2.00
65360;PMS5003;51958;55.018;73.536;2023-10-09T15:12:30;4.00;3.00;1.00
65360;PMS5003;51958;55.018;73.536;2023-10-09T15:15:31;2.00;2.00;0.00
65360;PMS5003;51958;55.018;73.536;2023-10-09T15:18:32;3.00;3.00;1.00
65360;PMS5003;51958;55.018;73.536;2023-10-09T15:21:34;3.00;3.00;1.00
65360;PMS5003;51958;55.018;73.536;2023-10-09T15:24:35;3.25;3.00;1.00
65360;PMS5003;51958;55.018;73.536;2023-10-09T15:27:39;3.00;2.00;1.00
65360;PMS5003;51958;55.018;73.536;2023-10-09T15:30:40;4.00;2.00;0.00
65360;PMS5003;51958;55.018;73.536;2023-10-09T15:33:42;2.00;1.00;0.00
65360;PMS5003;51958;55.018;73.536;2023-10-09T15:36:45;4.00;3.75;0.00
65360;PMS5003;51958;55.018;73.536;2023-10-09T15:39:47;2.00;2.00;0.00
65360;PMS5003;51958;55.018;73.536;2023-10-09T15:42:51;2.75;2.75;0.00
65360;PMS5003;51958;55.018;73.536;2023-10-09T15:46:01;4.00;4.00;0.00
65360;PMS5003;51958;55.018;73.536;2023-10-09T15:49:04;3.00;3.00;0.00
65360;PMS5003;51958;55.018;73.536;2023-10-09T15:52:05;2.00;2.00;0.00
65360;PMS5003;51958;55.018;73.536;2023-10-09T15:55:09;4.00;2.00;0.00
65360;PMS5003;51958;55.018;73.536;2023-10-09T15:58:14;5.00;3.00;0.00
65360;PMS5003;51958;55.018;73.536;2023-10-09T16:01:17;4.00;2.00;0.00
65360;PMS5003;51958;55.018;73.536;2023-10-09T16:04:21;3.50;3.25;1.00
65360;PMS5003;51958;55.018;73.536;2023-10-09T16:07:22;2.60;1.60;0.00
65360;PMS5003;51958;55.018;73.536;2023-10-09T16:10:27;2.00;2.00;0.00
65360;PMS5003;51958;55.018;73.536;2023-10-09T16:13:28;2.00;1.00;0.00
65360;PMS5003;51958;55.018;73.536;2023-10-09T16:16:30;2.00;1.00;0.00
65360;PMS5003;51958;55.018;73.536;2023-10-09T16:19:31;1.00;1.00;0.00
65360;PMS5003;51958;55.018;73.536;2023-10-09T16:22:37;1.00;1.00;0.00
65360;PMS5003;51958;55.018;73.536;2023-10-09T16:25:40;2.00;2.00;0.00
65360;PMS5003;51958;55.018;73.536;2023-10-09T16:28:41;2.00;2.00;0.00
65360;PMS5003;51958;55.018;73.536;2023-10-09T16:31:43;0.00;0.00;0.00
65360;PMS5003;51958;55.018;73.536;2023-10-09T16:34:44;1.50;1.50;0.00
65360;PMS5003;51958;55.018;73.536;2023-10-09T16:37:45;1.50;1.50;0.00
65360;PMS5003;51958;55.018;73.536;2023-10-09T16:40:54;1.00;1.00;0.00
65360;PMS5003;51958;55.018;73.536;2023-10-09T16:43:55;1.00;1.00;0.00
65360;PMS5003;51958;55.018;73.536;2023-10-09T16:46:58;1.75;0.75;0.00
65360;PMS5003;51958;55.018;73.536;2023-10-09T16:49:59;1.00;1.00;0.00
65360;PMS5003;51958;55.018;73.536;2023-10-09T16:53:01;1.00;1.00;0.00
65360;PMS5003;51958;55.018;73.536;2023-10-09T16:56:04;1.00;0.00;0.00
65360;PMS5003;51958;55.018;73.536;2023-10-09T16:59:14;1.00;0.00;0.00
65360;PMS5003;51958;55.018;73.536;2023-10-09T17:02:16;2.00;2.00;0.00
65360;PMS5003;51958;55.018;73.536;2023-10-09T17:05:24;1.25;1.00;0.00
65360;PMS5003;51958;55.018;73.536;2023-10-09T17:08:29;1.00;0.00;0.00
65360;PMS5003;51958;55.018;73.536;2023-10-09T17:11:30;1.25;1.00;0.00
65360;PMS5003;51958;55.018;73.536;2023-10-09T17:14:31;0.00;0.00;0.00
65360;PMS5003;51958;55.018;73.536;2023-10-09T17:17:35;0.75;0.00;0.00
65360;PMS5003;51958;55.018;73.536;2023-10-09T17:20:39;1.00;0.00;0.00
65360;PMS5003;51958;55.018;73.536;2023-10-09T17:23:41;1.00;0.00;0.00
65360;PMS5003;51958;55.018;73.536;2023-10-09T17:26:43;1.00;0.00;0.00
65360;PMS5003;51958;55.018;73.536;2023-10-09T17:29:46;1.00;0.00;0.00
65360;PMS5003;51958;55.018;73.536;2023-10-09T17:32:47;1.00;1.00;0.00
65360;PMS5003;51958;55.018;73.536;2023-10-09T17:35:48;1.00;1.00;0.00
65360;PMS5003;51958;55.018;73.536;2023-10-09T17:38:50;1.00;1.00;0.00
65360;PMS5003;51958;55.018;73.536;2023-10-09T17:41:52;1.00;1.00;0.00
65360;PMS5003;51958;55.018;73.536;2023-10-09T17:44:53;1.00;0.00;0.00
65360;PMS5003;51958;55.018;73.536;2023-10-09T17:47:56;1.25;0.00;0.00
65360;PMS5003;51958;55.018;73.536;2023-10-09T17:51:00;0.00;0.00;0.00
65360;PMS5003;51958;55.018;73.536;2023-10-09T17:54:01;0.00;0.00;0.00
65360;PMS5003;51958;55.018;73.536;2023-10-09T17:57:02;1.00;0.33;0.00
65360;PMS5003;51958;55.018;73.536;2023-10-09T18:00:04;0.00;0.00;0.00
65360;PMS5003;51958;55.018;73.536;2023-10-09T18:03:10;1.00;0.00;0.00
65360;PMS5003;51958;55.018;73.536;2023-10-09T18:06:18;1.00;0.00;0.00
65360;PMS5003;51958;55.018;73.536;2023-10-09T18:09:19;0.00;0.00;0.00
65360;PMS5003;51958;55.018;73.536;2023-10-09T18:12:22;0.00;0.00;0.00
65360;PMS5003;51958;55.018;73.536;2023-10-09T18:15:24;0.00;0.00;0.00
65360;PMS5003;51958;55.018;73.536;2023-10-09T18:18:28;1.33;0.00;0.00